Terminal Aerodrome Forecast
Issued by NWS

Home | Current Version | Previous Version | Graphics & Text | Print | Product List | Glossary On
Versions: 1 2 3 4 5 6 7 8 9 10 11 12 13
000
FTUS43 KLSX 092328
TAFSUS
TAF
KSUS 092328Z 1000/1024 30006KT P6SM FEW250
     FM100800 23004KT P6SM FEW250
     FM101500 23009KT P6SM FEW250
     FM101800 27011G19KT P6SM SCT250=

USA.gov is the U.S. government's official web portal to all federal, state and local government web resources and services.